sensor_id;sensor_type;location;lat;lon;timestamp;temperature;humidity
42199;DHT22;27868;45.184;5.786;2023-03-04T00:00:12;9.50;68.80
42199;DHT22;27868;45.184;5.786;2023-03-04T00:02:58;9.50;68.70
42199;DHT22;27868;45.184;5.786;2023-03-04T00:05:42;9.50;68.80
42199;DHT22;27868;45.184;5.786;2023-03-04T00:08:27;9.50;68.80
42199;DHT22;27868;45.184;5.786;2023-03-04T00:11:12;9.50;69.00
42199;DHT22;27868;45.184;5.786;2023-03-04T00:13:56;9.50;69.10
42199;DHT22;27868;45.184;5.786;2023-03-04T00:16:41;9.50;69.00
42199;DHT22;27868;45.184;5.786;2023-03-04T00:19:26;9.50;68.90
42199;DHT22;27868;45.184;5.786;2023-03-04T00:22:10;9.50;69.10
42199;DHT22;27868;45.184;5.786;2023-03-04T00:24:55;9.50;69.30
42199;DHT22;27868;45.184;5.786;2023-03-04T00:27:39;9.50;69.30
42199;DHT22;27868;45.184;5.786;2023-03-04T00:30:24;9.40;69.40
42199;DHT22;27868;45.184;5.786;2023-03-04T00:33:09;9.40;69.50
42199;DHT22;27868;45.184;5.786;2023-03-04T00:35:53;9.40;69.50
42199;DHT22;27868;45.184;5.786;2023-03-04T00:38:39;9.40;69.50
42199;DHT22;27868;45.184;5.786;2023-03-04T00:41:23;9.40;69.50
42199;DHT22;27868;45.184;5.786;2023-03-04T00:44:07;9.40;69.60
42199;DHT22;27868;45.184;5.786;2023-03-04T00:46:52;9.40;69.80
42199;DHT22;27868;45.184;5.786;2023-03-04T00:49:37;9.40;69.70
42199;DHT22;27868;45.184;5.786;2023-03-04T00:52:21;9.40;69.90
42199;DHT22;27868;45.184;5.786;2023-03-04T00:55:07;9.40;69.90
42199;DHT22;27868;45.184;5.786;2023-03-04T00:57:52;9.40;70.10
42199;DHT22;27868;45.184;5.786;2023-03-04T01:00:37;9.40;70.30
42199;DHT22;27868;45.184;5.786;2023-03-04T01:03:21;9.40;70.10
42199;DHT22;27868;45.184;5.786;2023-03-04T01:06:06;9.40;70.20
42199;DHT22;27868;45.184;5.786;2023-03-04T01:08:50;9.40;70.20
42199;DHT22;27868;45.184;5.786;2023-03-04T01:11:35;9.40;70.10
42199;DHT22;27868;45.184;5.786;2023-03-04T01:14:19;9.40;70.20
42199;DHT22;27868;45.184;5.786;2023-03-04T01:17:04;9.40;70.30
42199;DHT22;27868;45.184;5.786;2023-03-04T01:19:49;9.40;70.50
42199;DHT22;27868;45.184;5.786;2023-03-04T01:22:33;9.40;70.40
42199;DHT22;27868;45.184;5.786;2023-03-04T01:25:18;9.40;70.50
42199;DHT22;27868;45.184;5.786;2023-03-04T01:28:03;9.40;70.60
42199;DHT22;27868;45.184;5.786;2023-03-04T01:30:48;9.40;70.80
42199;DHT22;27868;45.184;5.786;2023-03-04T01:33:32;9.30;70.90
42199;DHT22;27868;45.184;5.786;2023-03-04T01:36:16;9.30;71.00
42199;DHT22;27868;45.184;5.786;2023-03-04T01:39:01;9.40;71.20
42199;DHT22;27868;45.184;5.786;2023-03-04T01:41:45;9.30;71.20
42199;DHT22;27868;45.184;5.786;2023-03-04T01:44:30;9.30;71.40
42199;DHT22;27868;45.184;5.786;2023-03-04T01:47:16;9.30;71.60
42199;DHT22;27868;45.184;5.786;2023-03-04T01:50:03;9.30;71.70
42199;DHT22;27868;45.184;5.786;2023-03-04T01:52:49;9.30;71.90
42199;DHT22;27868;45.184;5.786;2023-03-04T01:55:34;9.30;72.00
42199;DHT22;27868;45.184;5.786;2023-03-04T01:58:18;9.30;72.10
42199;DHT22;27868;45.184;5.786;2023-03-04T02:01:03;9.20;72.20
42199;DHT22;27868;45.184;5.786;2023-03-04T02:03:48;9.20;72.10
42199;DHT22;27868;45.184;5.786;2023-03-04T02:06:34;9.30;72.20
42199;DHT22;27868;45.184;5.786;2023-03-04T02:09:20;9.20;72.20
42199;DHT22;27868;45.184;5.786;2023-03-04T02:12:05;9.20;72.30
42199;DHT22;27868;45.184;5.786;2023-03-04T02:14:49;9.20;72.30
42199;DHT22;27868;45.184;5.786;2023-03-04T02:17:34;9.20;72.50
42199;DHT22;27868;45.184;5.786;2023-03-04T02:29:01;9.20;72.80
42199;DHT22;27868;45.184;5.786;2023-03-04T02:31:48;9.20;72.80
42199;DHT22;27868;45.184;5.786;2023-03-04T02:34:35;9.20;72.80
42199;DHT22;27868;45.184;5.786;2023-03-04T02:37:20;9.10;72.70
42199;DHT22;27868;45.184;5.786;2023-03-04T02:40:26;9.20;72.90
42199;DHT22;27868;45.184;5.786;2023-03-04T02:43:12;9.20;73.10
42199;DHT22;27868;45.184;5.786;2023-03-04T02:45:57;9.20;73.10
42199;DHT22;27868;45.184;5.786;2023-03-04T02:48:41;9.20;73.30
42199;DHT22;27868;45.184;5.786;2023-03-04T02:51:26;9.20;73.20
42199;DHT22;27868;45.184;5.786;2023-03-04T02:54:29;9.10;73.10
42199;DHT22;27868;45.184;5.786;2023-03-04T02:57:14;9.10;73.40
42199;DHT22;27868;45.184;5.786;2023-03-04T02:59:59;9.10;73.60
42199;DHT22;27868;45.184;5.786;2023-03-04T03:02:43;9.10;73.90
42199;DHT22;27868;45.184;5.786;2023-03-04T03:05:30;9.10;74.10
42199;DHT22;27868;45.184;5.786;2023-03-04T03:08:15;9.10;74.30
42199;DHT22;27868;45.184;5.786;2023-03-04T03:11:00;9.10;74.30
42199;DHT22;27868;45.184;5.786;2023-03-04T03:13:45;9.10;74.30
42199;DHT22;27868;45.184;5.786;2023-03-04T03:16:29;9.10;74.40
42199;DHT22;27868;45.184;5.786;2023-03-04T03:19:14;9.10;74.30
42199;DHT22;27868;45.184;5.786;2023-03-04T03:21:58;9.10;74.20
42199;DHT22;27868;45.184;5.786;2023-03-04T03:24:43;9.10;74.20
42199;DHT22;27868;45.184;5.786;2023-03-04T03:27:28;9.00;74.20
42199;DHT22;27868;45.184;5.786;2023-03-04T03:30:15;9.10;74.10
42199;DHT22;27868;45.184;5.786;2023-03-04T03:33:00;9.10;74.10
42199;DHT22;27868;45.184;5.786;2023-03-04T03:35:45;9.00;74.00
42199;DHT22;27868;45.184;5.786;2023-03-04T03:38:29;9.10;74.20
42199;DHT22;27868;45.184;5.786;2023-03-04T03:41:14;9.00;74.30
42199;DHT22;27868;45.184;5.786;2023-03-04T03:43:59;9.00;74.40
42199;DHT22;27868;45.184;5.786;2023-03-04T03:46:43;9.00;74.30
42199;DHT22;27868;45.184;5.786;2023-03-04T03:49:28;9.00;74.30
42199;DHT22;27868;45.184;5.786;2023-03-04T03:52:13;9.00;74.30
42199;DHT22;27868;45.184;5.786;2023-03-04T03:54:57;9.00;74.50
42199;DHT22;27868;45.184;5.786;2023-03-04T03:57:45;9.00;74.40
42199;DHT22;27868;45.184;5.786;2023-03-04T04:00:29;9.00;74.40
42199;DHT22;27868;45.184;5.786;2023-03-04T04:03:14;9.00;74.40
42199;DHT22;27868;45.184;5.786;2023-03-04T04:06:00;9.00;74.60
42199;DHT22;27868;45.184;5.786;2023-03-04T04:08:44;8.90;74.40
42199;DHT22;27868;45.184;5.786;2023-03-04T04:11:29;9.00;74.40
42199;DHT22;27868;45.184;5.786;2023-03-04T04:14:14;8.90;74.30
42199;DHT22;27868;45.184;5.786;2023-03-04T04:16:59;9.00;74.50
42199;DHT22;27868;45.184;5.786;2023-03-04T04:19:43;8.90;74.40
42199;DHT22;27868;45.184;5.786;2023-03-04T04:22:28;8.90;74.50
42199;DHT22;27868;45.184;5.786;2023-03-04T04:25:12;8.90;75.40
42199;DHT22;27868;45.184;5.786;2023-03-04T04:27:57;8.90;74.90
42199;DHT22;27868;45.184;5.786;2023-03-04T04:30:41;8.90;75.00
42199;DHT22;27868;45.184;5.786;2023-03-04T04:33:26;8.90;75.10
42199;DHT22;27868;45.184;5.786;2023-03-04T04:36:14;8.90;75.10
42199;DHT22;27868;45.184;5.786;2023-03-04T04:38:59;8.90;75.20
42199;DHT22;27868;45.184;5.786;2023-03-04T04:41:44;8.90;75.10
42199;DHT22;27868;45.184;5.786;2023-03-04T04:44:29;8.90;75.10
42199;DHT22;27868;45.184;5.786;2023-03-04T04:47:13;8.90;75.30
42199;DHT22;27868;45.184;5.786;2023-03-04T04:49:58;8.90;75.40
42199;DHT22;27868;45.184;5.786;2023-03-04T04:52:42;8.90;75.50
42199;DHT22;27868;45.184;5.786;2023-03-04T04:55:27;8.90;75.50
42199;DHT22;27868;45.184;5.786;2023-03-04T04:58:12;8.90;75.40
42199;DHT22;27868;45.184;5.786;2023-03-04T05:00:56;8.90;75.60
42199;DHT22;27868;45.184;5.786;2023-03-04T05:03:41;8.90;75.70
42199;DHT22;27868;45.184;5.786;2023-03-04T05:06:26;8.90;76.00
42199;DHT22;27868;45.184;5.786;2023-03-04T05:09:11;8.90;75.90
42199;DHT22;27868;45.184;5.786;2023-03-04T05:11:56;8.90;75.90
42199;DHT22;27868;45.184;5.786;2023-03-04T05:14:41;8.90;76.00
42199;DHT22;27868;45.184;5.786;2023-03-04T05:17:25;8.90;76.10
42199;DHT22;27868;45.184;5.786;2023-03-04T05:20:10;8.90;76.40
42199;DHT22;27868;45.184;5.786;2023-03-04T05:22:55;8.90;76.40
42199;DHT22;27868;45.184;5.786;2023-03-04T05:25:39;8.90;76.40
42199;DHT22;27868;45.184;5.786;2023-03-04T05:28:24;8.90;76.30
42199;DHT22;27868;45.184;5.786;2023-03-04T05:31:09;8.80;76.30
42199;DHT22;27868;45.184;5.786;2023-03-04T05:33:55;8.90;76.50
42199;DHT22;27868;45.184;5.786;2023-03-04T05:36:39;8.80;76.50
42199;DHT22;27868;45.184;5.786;2023-03-04T05:39:24;8.80;76.60
42199;DHT22;27868;45.184;5.786;2023-03-04T05:42:08;8.90;76.80
42199;DHT22;27868;45.184;5.786;2023-03-04T05:44:53;8.80;76.90
42199;DHT22;27868;45.184;5.786;2023-03-04T05:47:37;8.90;77.10
42199;DHT22;27868;45.184;5.786;2023-03-04T05:50:22;8.80;77.20
42199;DHT22;27868;45.184;5.786;2023-03-04T05:53:07;8.80;77.20
42199;DHT22;27868;45.184;5.786;2023-03-04T05:55:52;8.80;77.10
42199;DHT22;27868;45.184;5.786;2023-03-04T05:58:37;8.80;76.90
42199;DHT22;27868;45.184;5.786;2023-03-04T06:01:21;8.80;76.70
42199;DHT22;27868;45.184;5.786;2023-03-04T06:04:06;8.80;76.30
42199;DHT22;27868;45.184;5.786;2023-03-04T06:06:50;8.80;76.20
42199;DHT22;27868;45.184;5.786;2023-03-04T06:09:35;8.80;76.40
42199;DHT22;27868;45.184;5.786;2023-03-04T06:12:20;8.80;76.40
42199;DHT22;27868;45.184;5.786;2023-03-04T06:15:05;8.80;76.30
42199;DHT22;27868;45.184;5.786;2023-03-04T06:17:50;8.80;76.10
42199;DHT22;27868;45.184;5.786;2023-03-04T06:20:35;8.80;76.00
42199;DHT22;27868;45.184;5.786;2023-03-04T06:23:19;8.80;76.30
42199;DHT22;27868;45.184;5.786;2023-03-04T06:26:04;8.80;76.50
42199;DHT22;27868;45.184;5.786;2023-03-04T06:28:52;8.80;76.50
42199;DHT22;27868;45.184;5.786;2023-03-04T06:31:40;8.80;76.50
42199;DHT22;27868;45.184;5.786;2023-03-04T06:34:25;8.80;76.50
42199;DHT22;27868;45.184;5.786;2023-03-04T06:37:10;8.80;76.50
42199;DHT22;27868;45.184;5.786;2023-03-04T06:39:54;8.80;76.50
42199;DHT22;27868;45.184;5.786;2023-03-04T06:42:40;8.80;76.50
42199;DHT22;27868;45.184;5.786;2023-03-04T06:45:24;8.80;76.50
42199;DHT22;27868;45.184;5.786;2023-03-04T06:48:09;8.80;76.30
42199;DHT22;27868;45.184;5.786;2023-03-04T06:50:54;8.80;76.50
42199;DHT22;27868;45.184;5.786;2023-03-04T06:53:40;8.80;76.50
42199;DHT22;27868;45.184;5.786;2023-03-04T06:56:24;8.80;76.50
42199;DHT22;27868;45.184;5.786;2023-03-04T06:59:09;8.80;76.60
42199;DHT22;27868;45.184;5.786;2023-03-04T07:01:54;8.90;76.70
42199;DHT22;27868;45.184;5.786;2023-03-04T07:04:40;8.80;76.60
42199;DHT22;27868;45.184;5.786;2023-03-04T07:07:26;8.80;76.50
42199;DHT22;27868;45.184;5.786;2023-03-04T07:10:11;8.80;76.70
42199;DHT22;27868;45.184;5.786;2023-03-04T07:12:55;8.80;76.90
42199;DHT22;27868;45.184;5.786;2023-03-04T07:15:40;8.80;77.10
42199;DHT22;27868;45.184;5.786;2023-03-04T07:18:25;8.80;77.70
42199;DHT22;27868;45.184;5.786;2023-03-04T07:21:09;8.80;77.10
42199;DHT22;27868;45.184;5.786;2023-03-04T07:23:54;8.80;77.20
42199;DHT22;27868;45.184;5.786;2023-03-04T07:26:39;8.90;77.20
42199;DHT22;27868;45.184;5.786;2023-03-04T07:29:24;8.80;77.90
42199;DHT22;27868;45.184;5.786;2023-03-04T07:32:09;8.80;77.30
42199;DHT22;27868;45.184;5.786;2023-03-04T07:34:53;8.80;77.40
42199;DHT22;27868;45.184;5.786;2023-03-04T07:37:38;8.90;77.60
42199;DHT22;27868;45.184;5.786;2023-03-04T07:40:23;8.90;77.50
42199;DHT22;27868;45.184;5.786;2023-03-04T07:43:10;8.90;77.50
42199;DHT22;27868;45.184;5.786;2023-03-04T07:46:00;8.90;77.70
42199;DHT22;27868;45.184;5.786;2023-03-04T07:48:45;8.90;78.30
42199;DHT22;27868;45.184;5.786;2023-03-04T07:51:30;8.90;77.60
42199;DHT22;27868;45.184;5.786;2023-03-04T07:54:15;8.90;77.70
42199;DHT22;27868;45.184;5.786;2023-03-04T07:57:00;8.90;77.60
42199;DHT22;27868;45.184;5.786;2023-03-04T07:59:44;8.90;77.40
42199;DHT22;27868;45.184;5.786;2023-03-04T08:02:29;9.00;77.50
42199;DHT22;27868;45.184;5.786;2023-03-04T08:05:13;9.00;77.50
42199;DHT22;27868;45.184;5.786;2023-03-04T08:07:58;9.00;77.30
42199;DHT22;27868;45.184;5.786;2023-03-04T08:10:43;9.00;77.40
42199;DHT22;27868;45.184;5.786;2023-03-04T08:13:28;8.90;77.40
42199;DHT22;27868;45.184;5.786;2023-03-04T08:16:17;9.00;77.40
42199;DHT22;27868;45.184;5.786;2023-03-04T08:19:03;9.00;77.20
42199;DHT22;27868;45.184;5.786;2023-03-04T08:21:48;9.10;77.10
42199;DHT22;27868;45.184;5.786;2023-03-04T08:24:33;9.00;77.00
42199;DHT22;27868;45.184;5.786;2023-03-04T08:27:18;9.00;77.10
42199;DHT22;27868;45.184;5.786;2023-03-04T08:30:04;9.10;77.30
42199;DHT22;27868;45.184;5.786;2023-03-04T08:32:49;9.10;77.60
42199;DHT22;27868;45.184;5.786;2023-03-04T08:35:37;9.10;77.70
42199;DHT22;27868;45.184;5.786;2023-03-04T08:38:22;9.10;77.80
42199;DHT22;27868;45.184;5.786;2023-03-04T08:41:06;9.10;77.80
42199;DHT22;27868;45.184;5.786;2023-03-04T08:43:51;9.10;77.80
42199;DHT22;27868;45.184;5.786;2023-03-04T08:46:37;9.20;77.90
42199;DHT22;27868;45.184;5.786;2023-03-04T08:49:22;9.20;77.80
42199;DHT22;27868;45.184;5.786;2023-03-04T08:52:07;9.20;77.80
42199;DHT22;27868;45.184;5.786;2023-03-04T08:54:52;9.20;77.90
42199;DHT22;27868;45.184;5.786;2023-03-04T08:57:36;9.20;77.90
42199;DHT22;27868;45.184;5.786;2023-03-04T09:00:21;9.20;77.80
42199;DHT22;27868;45.184;5.786;2023-03-04T09:03:07;9.30;77.50
42199;DHT22;27868;45.184;5.786;2023-03-04T09:05:52;9.30;77.50
42199;DHT22;27868;45.184;5.786;2023-03-04T09:08:36;9.30;77.40
42199;DHT22;27868;45.184;5.786;2023-03-04T09:11:21;9.30;77.50
42199;DHT22;27868;45.184;5.786;2023-03-04T09:14:05;9.30;77.60
42199;DHT22;27868;45.184;5.786;2023-03-04T09:16:50;9.30;77.60
42199;DHT22;27868;45.184;5.786;2023-03-04T09:19:34;9.30;77.60
42199;DHT22;27868;45.184;5.786;2023-03-04T09:22:19;9.40;77.50
42199;DHT22;27868;45.184;5.786;2023-03-04T09:25:04;9.30;77.20
42199;DHT22;27868;45.184;5.786;2023-03-04T09:27:49;9.30;77.20
42199;DHT22;27868;45.184;5.786;2023-03-04T09:30:34;9.40;77.10
42199;DHT22;27868;45.184;5.786;2023-03-04T09:33:18;9.40;77.20
42199;DHT22;27868;45.184;5.786;2023-03-04T09:36:03;9.40;77.20
42199;DHT22;27868;45.184;5.786;2023-03-04T09:38:48;9.40;77.30
42199;DHT22;27868;45.184;5.786;2023-03-04T09:41:43;9.40;77.40
42199;DHT22;27868;45.184;5.786;2023-03-04T09:44:38;9.40;77.30
42199;DHT22;27868;45.184;5.786;2023-03-04T09:47:25;9.40;77.10
42199;DHT22;27868;45.184;5.786;2023-03-04T09:50:11;9.40;77.10
42199;DHT22;27868;45.184;5.786;2023-03-04T09:53:25;9.40;77.00
42199;DHT22;27868;45.184;5.786;2023-03-04T09:56:17;9.40;76.90
42199;DHT22;27868;45.184;5.786;2023-03-04T10:05:19;9.40;76.90
42199;DHT22;27868;45.184;5.786;2023-03-04T10:11:25;9.50;77.30
42199;DHT22;27868;45.184;5.786;2023-03-04T10:17:51;9.50;77.40
42199;DHT22;27868;45.184;5.786;2023-03-04T10:21:03;9.60;77.50
42199;DHT22;27868;45.184;5.786;2023-03-04T10:23:49;9.60;77.10
42199;DHT22;27868;45.184;5.786;2023-03-04T10:26:35;9.60;76.90
42199;DHT22;27868;45.184;5.786;2023-03-04T10:29:23;9.60;76.80
42199;DHT22;27868;45.184;5.786;2023-03-04T10:32:13;9.60;76.50
42199;DHT22;27868;45.184;5.786;2023-03-04T10:34:59;9.60;76.30
42199;DHT22;27868;45.184;5.786;2023-03-04T10:37:45;9.70;76.40
42199;DHT22;27868;45.184;5.786;2023-03-04T10:40:37;9.70;76.40
42199;DHT22;27868;45.184;5.786;2023-03-04T10:43:23;9.70;76.40
42199;DHT22;27868;45.184;5.786;2023-03-04T10:46:10;9.70;76.40
42199;DHT22;27868;45.184;5.786;2023-03-04T10:48:55;9.70;76.40
42199;DHT22;27868;45.184;5.786;2023-03-04T10:51:44;9.80;76.70
42199;DHT22;27868;45.184;5.786;2023-03-04T10:54:50;9.80;76.50
42199;DHT22;27868;45.184;5.786;2023-03-04T10:57:37;9.90;76.30
42199;DHT22;27868;45.184;5.786;2023-03-04T11:00:32;9.90;76.30
42199;DHT22;27868;45.184;5.786;2023-03-04T11:03:29;9.90;76.10
42199;DHT22;27868;45.184;5.786;2023-03-04T11:06:18;9.90;75.90
42199;DHT22;27868;45.184;5.786;2023-03-04T11:09:03;9.90;75.80
42199;DHT22;27868;45.184;5.786;2023-03-04T11:11:49;9.90;75.80
42199;DHT22;27868;45.184;5.786;2023-03-04T11:14:50;10.00;75.30
42199;DHT22;27868;45.184;5.786;2023-03-04T11:17:43;10.00;75.00
42199;DHT22;27868;45.184;5.786;2023-03-04T11:20:35;10.00;75.20
42199;DHT22;27868;45.184;5.786;2023-03-04T11:23:28;10.00;74.90
42199;DHT22;27868;45.184;5.786;2023-03-04T11:26:22;10.00;74.40
42199;DHT22;27868;45.184;5.786;2023-03-04T11:29:30;10.10;74.60
42199;DHT22;27868;45.184;5.786;2023-03-04T11:32:28;10.10;74.60
42199;DHT22;27868;45.184;5.786;2023-03-04T11:38:16;10.20;74.20
42199;DHT22;27868;45.184;5.786;2023-03-04T11:41:10;10.20;74.30
42199;DHT22;27868;45.184;5.786;2023-03-04T11:43:58;10.20;73.90
42199;DHT22;27868;45.184;5.786;2023-03-04T11:50:26;10.20;73.80
42199;DHT22;27868;45.184;5.786;2023-03-04T12:02:22;10.30;73.70
42199;DHT22;27868;45.184;5.786;2023-03-04T12:05:16;10.30;73.40
42199;DHT22;27868;45.184;5.786;2023-03-04T12:11:34;10.40;73.40
42199;DHT22;27868;45.184;5.786;2023-03-04T12:17:51;10.40;73.20
42199;DHT22;27868;45.184;5.786;2023-03-04T12:20:45;10.40;73.10
42199;DHT22;27868;45.184;5.786;2023-03-04T12:26:37;10.50;72.60
42199;DHT22;27868;45.184;5.786;2023-03-04T12:32:43;10.50;72.40
42199;DHT22;27868;45.184;5.786;2023-03-04T12:39:02;10.50;72.60
42199;DHT22;27868;45.184;5.786;2023-03-04T12:42:36;10.50;72.30
42199;DHT22;27868;45.184;5.786;2023-03-04T12:45:42;10.60;72.40
42199;DHT22;27868;45.184;5.786;2023-03-04T12:48:41;10.50;72.10
42199;DHT22;27868;45.184;5.786;2023-03-04T12:54:31;10.60;71.90
42199;DHT22;27868;45.184;5.786;2023-03-04T12:57:26;10.60;72.00
42199;DHT22;27868;45.184;5.786;2023-03-04T13:09:25;10.70;71.30
42199;DHT22;27868;45.184;5.786;2023-03-04T13:12:20;10.70;71.20
42199;DHT22;27868;45.184;5.786;2023-03-04T13:17:55;10.70;71.40
42199;DHT22;27868;45.184;5.786;2023-03-04T13:21:18;10.70;71.30
42199;DHT22;27868;45.184;5.786;2023-03-04T13:24:44;10.70;71.30
42199;DHT22;27868;45.184;5.786;2023-03-04T13:27:48;10.80;71.30
42199;DHT22;27868;45.184;5.786;2023-03-04T13:36:25;10.80;70.80
42199;DHT22;27868;45.184;5.786;2023-03-04T13:41:59;10.80;70.60
42199;DHT22;27868;45.184;5.786;2023-03-04T13:47:41;10.90;70.40
42199;DHT22;27868;45.184;5.786;2023-03-04T13:50:33;10.80;69.90
42199;DHT22;27868;45.184;5.786;2023-03-04T13:53:40;10.90;70.20
42199;DHT22;27868;45.184;5.786;2023-03-04T13:56:41;10.90;70.30
42199;DHT22;27868;45.184;5.786;2023-03-04T13:59:37;10.90;69.60
42199;DHT22;27868;45.184;5.786;2023-03-04T14:02:23;10.90;70.10
42199;DHT22;27868;45.184;5.786;2023-03-04T14:05:11;10.90;69.80
42199;DHT22;27868;45.184;5.786;2023-03-04T14:07:55;10.90;69.70
42199;DHT22;27868;45.184;5.786;2023-03-04T14:10:40;11.00;69.20
42199;DHT22;27868;45.184;5.786;2023-03-04T14:13:24;11.00;69.40
42199;DHT22;27868;45.184;5.786;2023-03-04T14:16:10;11.00;68.80
42199;DHT22;27868;45.184;5.786;2023-03-04T14:19:11;11.00;69.10
42199;DHT22;27868;45.184;5.786;2023-03-04T14:21:59;11.00;68.90
42199;DHT22;27868;45.184;5.786;2023-03-04T14:27:41;11.00;69.40
42199;DHT22;27868;45.184;5.786;2023-03-04T14:30:27;11.00;69.20
42199;DHT22;27868;45.184;5.786;2023-03-04T14:33:28;11.10;69.00
42199;DHT22;27868;45.184;5.786;2023-03-04T14:36:19;11.10;68.70
42199;DHT22;27868;45.184;5.786;2023-03-04T14:39:11;11.10;68.40
42199;DHT22;27868;45.184;5.786;2023-03-04T14:42:03;11.10;68.50
42199;DHT22;27868;45.184;5.786;2023-03-04T14:44:51;11.10;68.30
42199;DHT22;27868;45.184;5.786;2023-03-04T14:47:44;11.10;68.20
42199;DHT22;27868;45.184;5.786;2023-03-04T14:50:31;11.10;68.20
42199;DHT22;27868;45.184;5.786;2023-03-04T14:53:19;11.20;68.50
42199;DHT22;27868;45.184;5.786;2023-03-04T14:56:09;11.20;68.40
42199;DHT22;27868;45.184;5.786;2023-03-04T14:58:55;11.10;68.00
42199;DHT22;27868;45.184;5.786;2023-03-04T15:01:41;11.20;68.30
42199;DHT22;27868;45.184;5.786;2023-03-04T15:04:25;11.20;68.00
42199;DHT22;27868;45.184;5.786;2023-03-04T15:07:24;11.20;67.70
42199;DHT22;27868;45.184;5.786;2023-03-04T15:10:11;11.20;67.40
42199;DHT22;27868;45.184;5.786;2023-03-04T15:12:58;11.20;67.30
42199;DHT22;27868;45.184;5.786;2023-03-04T15:15:46;11.20;67.10
42199;DHT22;27868;45.184;5.786;2023-03-04T15:18:32;11.20;67.10
42199;DHT22;27868;45.184;5.786;2023-03-04T15:24:06;11.30;66.80
42199;DHT22;27868;45.184;5.786;2023-03-04T15:26:52;11.30;67.20
42199;DHT22;27868;45.184;5.786;2023-03-04T15:29:36;11.30;67.30
42199;DHT22;27868;45.184;5.786;2023-03-04T15:32:22;11.30;67.70
42199;DHT22;27868;45.184;5.786;2023-03-04T15:35:11;11.30;66.80
42199;DHT22;27868;45.184;5.786;2023-03-04T15:37:56;11.30;66.80
42199;DHT22;27868;45.184;5.786;2023-03-04T15:40:41;11.30;66.70
42199;DHT22;27868;45.184;5.786;2023-03-04T15:43:26;11.30;66.60
42199;DHT22;27868;45.184;5.786;2023-03-04T15:46:11;11.30;66.70
42199;DHT22;27868;45.184;5.786;2023-03-04T15:48:56;11.30;66.70
42199;DHT22;27868;45.184;5.786;2023-03-04T15:51:40;11.30;67.10
42199;DHT22;27868;45.184;5.786;2023-03-04T15:54:27;11.30;67.50
42199;DHT22;27868;45.184;5.786;2023-03-04T15:57:24;11.30;67.30
42199;DHT22;27868;45.184;5.786;2023-03-04T16:00:11;11.30;67.00
42199;DHT22;27868;45.184;5.786;2023-03-04T16:02:57;11.30;67.30
42199;DHT22;27868;45.184;5.786;2023-03-04T16:05:43;11.30;66.90
42199;DHT22;27868;45.184;5.786;2023-03-04T16:08:28;11.30;67.10
42199;DHT22;27868;45.184;5.786;2023-03-04T16:11:16;11.30;67.20
42199;DHT22;27868;45.184;5.786;2023-03-04T16:14:02;11.30;67.30
42199;DHT22;27868;45.184;5.786;2023-03-04T16:16:46;11.30;67.50
42199;DHT22;27868;45.184;5.786;2023-03-04T16:19:31;11.30;67.40
42199;DHT22;27868;45.184;5.786;2023-03-04T16:22:19;11.20;66.60
42199;DHT22;27868;45.184;5.786;2023-03-04T16:25:10;11.20;67.10
42199;DHT22;27868;45.184;5.786;2023-03-04T16:27:56;11.30;67.60
42199;DHT22;27868;45.184;5.786;2023-03-04T16:30:42;11.30;68.00
42199;DHT22;27868;45.184;5.786;2023-03-04T16:33:26;11.30;68.40
42199;DHT22;27868;45.184;5.786;2023-03-04T16:36:20;11.30;68.40
42199;DHT22;27868;45.184;5.786;2023-03-04T16:39:09;11.20;68.20
42199;DHT22;27868;45.184;5.786;2023-03-04T16:41:56;11.20;68.60
42199;DHT22;27868;45.184;5.786;2023-03-04T16:44:42;11.20;68.80
42199;DHT22;27868;45.184;5.786;2023-03-04T16:47:26;11.20;68.60
42199;DHT22;27868;45.184;5.786;2023-03-04T16:50:20;11.20;68.80
42199;DHT22;27868;45.184;5.786;2023-03-04T16:54:01;11.20;68.90
42199;DHT22;27868;45.184;5.786;2023-03-04T16:56:46;11.20;69.00
42199;DHT22;27868;45.184;5.786;2023-03-04T16:59:31;11.20;68.80
42199;DHT22;27868;45.184;5.786;2023-03-04T17:02:19;11.20;68.80
42199;DHT22;27868;45.184;5.786;2023-03-04T17:05:04;11.20;69.00
42199;DHT22;27868;45.184;5.786;2023-03-04T17:07:50;11.20;69.20
42199;DHT22;27868;45.184;5.786;2023-03-04T17:10:34;11.10;71.50
42199;DHT22;27868;45.184;5.786;2023-03-04T17:13:19;10.90;71.80
42199;DHT22;27868;45.184;5.786;2023-03-04T17:16:04;10.80;70.00
42199;DHT22;27868;45.184;5.786;2023-03-04T17:18:49;10.70;69.70
42199;DHT22;27868;45.184;5.786;2023-03-04T17:21:34;10.50;69.50
42199;DHT22;27868;45.184;5.786;2023-03-04T17:24:19;10.40;70.10
42199;DHT22;27868;45.184;5.786;2023-03-04T17:27:04;10.30;70.60
42199;DHT22;27868;45.184;5.786;2023-03-04T17:29:49;10.30;70.70
42199;DHT22;27868;45.184;5.786;2023-03-04T17:32:37;10.30;70.80
42199;DHT22;27868;45.184;5.786;2023-03-04T17:35:22;10.30;71.00
42199;DHT22;27868;45.184;5.786;2023-03-04T17:38:09;10.30;70.80
42199;DHT22;27868;45.184;5.786;2023-03-04T17:40:54;10.30;70.60
42199;DHT22;27868;45.184;5.786;2023-03-04T17:43:45;10.30;70.60
42199;DHT22;27868;45.184;5.786;2023-03-04T17:46:30;10.20;70.80
42199;DHT22;27868;45.184;5.786;2023-03-04T17:49:15;10.20;70.60
42199;DHT22;27868;45.184;5.786;2023-03-04T17:52:02;10.30;70.70
42199;DHT22;27868;45.184;5.786;2023-03-04T17:54:47;10.30;70.70
42199;DHT22;27868;45.184;5.786;2023-03-04T17:57:35;10.10;70.00
42199;DHT22;27868;45.184;5.786;2023-03-04T18:00:20;10.10;70.60
42199;DHT22;27868;45.184;5.786;2023-03-04T18:03:04;10.10;70.50
42199;DHT22;27868;45.184;5.786;2023-03-04T18:05:49;10.10;70.60
42199;DHT22;27868;45.184;5.786;2023-03-04T18:08:33;10.10;70.40
42199;DHT22;27868;45.184;5.786;2023-03-04T18:11:20;10.10;70.60
42199;DHT22;27868;45.184;5.786;2023-03-04T18:14:05;10.10;70.70
42199;DHT22;27868;45.184;5.786;2023-03-04T18:16:50;10.10;70.80
42199;DHT22;27868;45.184;5.786;2023-03-04T18:19:34;10.10;70.80
42199;DHT22;27868;45.184;5.786;2023-03-04T18:22:19;10.00;70.20
42199;DHT22;27868;45.184;5.786;2023-03-04T18:25:04;9.90;70.90
42199;DHT22;27868;45.184;5.786;2023-03-04T18:27:49;9.80;71.10
42199;DHT22;27868;45.184;5.786;2023-03-04T18:30:34;9.70;71.50
42199;DHT22;27868;45.184;5.786;2023-03-04T18:33:19;9.80;71.60
42199;DHT22;27868;45.184;5.786;2023-03-04T18:36:07;9.80;71.60
42199;DHT22;27868;45.184;5.786;2023-03-04T18:38:52;9.90;71.70
42199;DHT22;27868;45.184;5.786;2023-03-04T18:41:38;9.90;71.90
42199;DHT22;27868;45.184;5.786;2023-03-04T18:44:22;9.90;71.90
42199;DHT22;27868;45.184;5.786;2023-03-04T18:47:07;9.90;72.10
42199;DHT22;27868;45.184;5.786;2023-03-04T18:49:53;10.00;72.10
42199;DHT22;27868;45.184;5.786;2023-03-04T18:52:38;10.00;72.20
42199;DHT22;27868;45.184;5.786;2023-03-04T18:55:23;9.90;72.00
42199;DHT22;27868;45.184;5.786;2023-03-04T18:58:08;10.00;71.90
42199;DHT22;27868;45.184;5.786;2023-03-04T19:00:53;10.00;72.00
42199;DHT22;27868;45.184;5.786;2023-03-04T19:03:39;10.00;72.20
42199;DHT22;27868;45.184;5.786;2023-03-04T19:06:24;10.00;72.40
42199;DHT22;27868;45.184;5.786;2023-03-04T19:09:09;10.00;72.30
42199;DHT22;27868;45.184;5.786;2023-03-04T19:11:54;9.90;72.60